sensor_id;sensor_type;location;lat;lon;timestamp;P1;durP1;ratioP1;P2;durP2;ratioP2
70908;SDS011;58554;52.006;5.926;2022-10-22T00:00:41;6.47;;;4.45;;
70908;SDS011;58554;52.006;5.926;2022-10-22T00:03:07;7.00;;;4.43;;
70908;SDS011;58554;52.006;5.926;2022-10-22T00:05:34;5.10;;;3.90;;
70908;SDS011;58554;52.006;5.926;2022-10-22T00:08:01;6.95;;;4.53;;
70908;SDS011;58554;52.006;5.926;2022-10-22T00:10:28;8.00;;;4.27;;
70908;SDS011;58554;52.006;5.926;2022-10-22T00:12:57;7.57;;;4.33;;
70908;SDS011;58554;52.006;5.926;2022-10-22T00:15:24;8.43;;;4.07;;
70908;SDS011;58554;52.006;5.926;2022-10-22T00:17:51;7.13;;;4.37;;
70908;SDS011;58554;52.006;5.926;2022-10-22T00:20:17;8.77;;;4.10;;
70908;SDS011;58554;52.006;5.926;2022-10-22T00:22:44;7.32;;;4.40;;
70908;SDS011;58554;52.006;5.926;2022-10-22T00:25:10;8.83;;;4.47;;
70908;SDS011;58554;52.006;5.926;2022-10-22T00:27:37;7.40;;;4.43;;
70908;SDS011;58554;52.006;5.926;2022-10-22T00:30:06;7.20;;;4.57;;
70908;SDS011;58554;52.006;5.926;2022-10-22T00:32:34;6.07;;;4.27;;
70908;SDS011;58554;52.006;5.926;2022-10-22T00:35:01;7.97;;;4.97;;
70908;SDS011;58554;52.006;5.926;2022-10-22T00:37:30;10.47;;;5.53;;
70908;SDS011;58554;52.006;5.926;2022-10-22T00:39:56;10.60;;;6.00;;
70908;SDS011;58554;52.006;5.926;2022-10-22T00:42:24;13.65;;;6.00;;
70908;SDS011;58554;52.006;5.926;2022-10-22T00:47:50;11.73;;;6.63;;
70908;SDS011;58554;52.006;5.926;2022-10-22T00:50:23;8.90;;;6.32;;
70908;SDS011;58554;52.006;5.926;2022-10-22T00:52:55;9.33;;;6.23;;
70908;SDS011;58554;52.006;5.926;2022-10-22T00:55:23;12.83;;;6.80;;
70908;SDS011;58554;52.006;5.926;2022-10-22T00:57:53;10.45;;;6.82;;
70908;SDS011;58554;52.006;5.926;2022-10-22T01:00:25;10.93;;;6.93;;
70908;SDS011;58554;52.006;5.926;2022-10-22T01:02:52;8.20;;;6.20;;
70908;SDS011;58554;52.006;5.926;2022-10-22T01:05:20;9.83;;;6.80;;
70908;SDS011;58554;52.006;5.926;2022-10-22T01:07:49;8.70;;;6.43;;
70908;SDS011;58554;52.006;5.926;2022-10-22T01:10:22;9.85;;;6.90;;
70908;SDS011;58554;52.006;5.926;2022-10-22T01:13:05;9.30;;;6.70;;
70908;SDS011;58554;52.006;5.926;2022-10-22T01:15:51;9.48;;;6.38;;
70908;SDS011;58554;52.006;5.926;2022-10-22T01:18:31;11.83;;;6.77;;
70908;SDS011;58554;52.006;5.926;2022-10-22T01:21:13;11.07;;;6.37;;
70908;SDS011;58554;52.006;5.926;2022-10-22T01:24:01;11.02;;;6.40;;
70908;SDS011;58554;52.006;5.926;2022-10-22T01:29:51;8.85;;;5.97;;
70908;SDS011;58554;52.006;5.926;2022-10-22T01:32:25;7.50;;;5.97;;
70908;SDS011;58554;52.006;5.926;2022-10-22T01:34:57;7.60;;;5.63;;
70908;SDS011;58554;52.006;5.926;2022-10-22T01:37:29;8.00;;;6.13;;
70908;SDS011;58554;52.006;5.926;2022-10-22T01:40:02;9.53;;;7.70;;
70908;SDS011;58554;52.006;5.926;2022-10-22T01:42:33;9.23;;;5.77;;
70908;SDS011;58554;52.006;5.926;2022-10-22T01:45:04;8.53;;;6.10;;
70908;SDS011;58554;52.006;5.926;2022-10-22T01:47:38;11.17;;;6.00;;
70908;SDS011;58554;52.006;5.926;2022-10-22T01:50:22;7.65;;;6.07;;
70908;SDS011;58554;52.006;5.926;2022-10-22T01:53:10;11.68;;;6.60;;
70908;SDS011;58554;52.006;5.926;2022-10-22T01:55:53;8.33;;;5.77;;
70908;SDS011;58554;52.006;5.926;2022-10-22T01:58:37;10.43;;;6.23;;
70908;SDS011;58554;52.006;5.926;2022-10-22T02:01:21;10.33;;;6.10;;
70908;SDS011;58554;52.006;5.926;2022-10-22T02:03:57;10.57;;;6.50;;
70908;SDS011;58554;52.006;5.926;2022-10-22T02:06:32;9.87;;;6.30;;
70908;SDS011;58554;52.006;5.926;2022-10-22T02:09:04;9.53;;;6.27;;
70908;SDS011;58554;52.006;5.926;2022-10-22T02:11:34;8.73;;;6.60;;
70908;SDS011;58554;52.006;5.926;2022-10-22T02:14:01;12.25;;;7.13;;
70908;SDS011;58554;52.006;5.926;2022-10-22T02:16:35;8.53;;;6.17;;
70908;SDS011;58554;52.006;5.926;2022-10-22T02:19:09;10.70;;;6.47;;
70908;SDS011;58554;52.006;5.926;2022-10-22T02:21:44;9.93;;;6.63;;
70908;SDS011;58554;52.006;5.926;2022-10-22T02:24:11;11.23;;;6.87;;
70908;SDS011;58554;52.006;5.926;2022-10-22T02:26:38;8.32;;;5.88;;
70908;SDS011;58554;52.006;5.926;2022-10-22T02:29:13;8.03;;;5.67;;
70908;SDS011;58554;52.006;5.926;2022-10-22T02:31:48;10.23;;;6.40;;
70908;SDS011;58554;52.006;5.926;2022-10-22T02:34:19;12.17;;;6.70;;
70908;SDS011;58554;52.006;5.926;2022-10-22T02:36:52;8.73;;;5.95;;
70908;SDS011;58554;52.006;5.926;2022-10-22T02:39:20;10.90;;;6.47;;
70908;SDS011;58554;52.006;5.926;2022-10-22T02:41:47;11.93;;;6.68;;
70908;SDS011;58554;52.006;5.926;2022-10-22T02:44:14;8.38;;;6.30;;
70908;SDS011;58554;52.006;5.926;2022-10-22T02:46:47;11.40;;;6.40;;
70908;SDS011;58554;52.006;5.926;2022-10-22T02:49:15;11.85;;;7.00;;
70908;SDS011;58554;52.006;5.926;2022-10-22T02:51:42;11.43;;;6.78;;
70908;SDS011;58554;52.006;5.926;2022-10-22T02:54:09;12.32;;;6.35;;
70908;SDS011;58554;52.006;5.926;2022-10-22T02:56:35;10.50;;;6.72;;
70908;SDS011;58554;52.006;5.926;2022-10-22T02:59:02;10.32;;;6.50;;
70908;SDS011;58554;52.006;5.926;2022-10-22T03:01:28;9.77;;;5.90;;
70908;SDS011;58554;52.006;5.926;2022-10-22T03:03:57;9.70;;;6.22;;
70908;SDS011;58554;52.006;5.926;2022-10-22T03:06:24;9.77;;;6.22;;
70908;SDS011;58554;52.006;5.926;2022-10-22T03:08:50;9.32;;;6.53;;
70908;SDS011;58554;52.006;5.926;2022-10-22T03:11:17;10.23;;;6.05;;
70908;SDS011;58554;52.006;5.926;2022-10-22T03:13:44;9.57;;;5.70;;
70908;SDS011;58554;52.006;5.926;2022-10-22T03:16:10;9.00;;;5.68;;
70908;SDS011;58554;52.006;5.926;2022-10-22T03:18:36;11.63;;;6.30;;
70908;SDS011;58554;52.006;5.926;2022-10-22T03:21:07;9.35;;;6.22;;
70908;SDS011;58554;52.006;5.926;2022-10-22T03:23:45;11.43;;;6.05;;
70908;SDS011;58554;52.006;5.926;2022-10-22T03:26:13;8.85;;;6.10;;
70908;SDS011;58554;52.006;5.926;2022-10-22T03:28:40;14.50;;;6.28;;
70908;SDS011;58554;52.006;5.926;2022-10-22T03:31:08;10.67;;;6.23;;
70908;SDS011;58554;52.006;5.926;2022-10-22T03:33:34;9.38;;;5.75;;
70908;SDS011;58554;52.006;5.926;2022-10-22T03:36:00;8.52;;;5.78;;
70908;SDS011;58554;52.006;5.926;2022-10-22T03:38:30;10.68;;;6.28;;
70908;SDS011;58554;52.006;5.926;2022-10-22T03:40:59;9.85;;;5.88;;
70908;SDS011;58554;52.006;5.926;2022-10-22T03:43:25;11.63;;;6.18;;
70908;SDS011;58554;52.006;5.926;2022-10-22T03:45:53;9.05;;;6.20;;
70908;SDS011;58554;52.006;5.926;2022-10-22T03:48:19;11.55;;;6.10;;
70908;SDS011;58554;52.006;5.926;2022-10-22T03:50:46;10.17;;;6.37;;
70908;SDS011;58554;52.006;5.926;2022-10-22T03:53:12;8.73;;;5.60;;
70908;SDS011;58554;52.006;5.926;2022-10-22T03:55:42;10.37;;;6.30;;
70908;SDS011;58554;52.006;5.926;2022-10-22T03:58:08;8.73;;;5.90;;
70908;SDS011;58554;52.006;5.926;2022-10-22T04:00:35;9.88;;;6.05;;
70908;SDS011;58554;52.006;5.926;2022-10-22T04:03:02;10.85;;;5.95;;
70908;SDS011;58554;52.006;5.926;2022-10-22T04:05:31;10.25;;;6.03;;
70908;SDS011;58554;52.006;5.926;2022-10-22T04:07:58;10.52;;;5.65;;
70908;SDS011;58554;52.006;5.926;2022-10-22T04:10:25;11.07;;;6.22;;
70908;SDS011;58554;52.006;5.926;2022-10-22T04:12:54;9.70;;;6.03;;
70908;SDS011;58554;52.006;5.926;2022-10-22T04:15:21;8.98;;;6.55;;
70908;SDS011;58554;52.006;5.926;2022-10-22T04:17:47;10.88;;;6.32;;
70908;SDS011;58554;52.006;5.926;2022-10-22T04:20:13;10.73;;;6.68;;
70908;SDS011;58554;52.006;5.926;2022-10-22T04:22:40;9.10;;;5.93;;
70908;SDS011;58554;52.006;5.926;2022-10-22T04:25:08;8.65;;;5.82;;
70908;SDS011;58554;52.006;5.926;2022-10-22T04:27:34;9.15;;;6.13;;
70908;SDS011;58554;52.006;5.926;2022-10-22T04:30:05;11.95;;;5.88;;
70908;SDS011;58554;52.006;5.926;2022-10-22T04:32:34;10.15;;;5.65;;
70908;SDS011;58554;52.006;5.926;2022-10-22T04:35:00;11.35;;;5.72;;
70908;SDS011;58554;52.006;5.926;2022-10-22T04:37:27;11.68;;;5.72;;
70908;SDS011;58554;52.006;5.926;2022-10-22T04:39:54;11.13;;;5.22;;
70908;SDS011;58554;52.006;5.926;2022-10-22T04:42:20;12.95;;;7.03;;
70908;SDS011;58554;52.006;5.926;2022-10-22T04:44:46;10.23;;;5.22;;
70908;SDS011;58554;52.006;5.926;2022-10-22T04:47:15;9.30;;;5.28;;
70908;SDS011;58554;52.006;5.926;2022-10-22T04:49:42;9.80;;;5.30;;
70908;SDS011;58554;52.006;5.926;2022-10-22T04:52:08;9.65;;;4.78;;
70908;SDS011;58554;52.006;5.926;2022-10-22T04:54:35;8.95;;;5.10;;
70908;SDS011;58554;52.006;5.926;2022-10-22T04:57:01;7.90;;;4.88;;
70908;SDS011;58554;52.006;5.926;2022-10-22T04:59:28;10.60;;;4.97;;
70908;SDS011;58554;52.006;5.926;2022-10-22T05:01:54;7.67;;;4.63;;
70908;SDS011;58554;52.006;5.926;2022-10-22T05:04:23;9.27;;;4.60;;
70908;SDS011;58554;52.006;5.926;2022-10-22T05:06:50;7.65;;;4.38;;
70908;SDS011;58554;52.006;5.926;2022-10-22T05:09:17;9.95;;;5.25;;
70908;SDS011;58554;52.006;5.926;2022-10-22T05:11:46;8.15;;;4.80;;
70908;SDS011;58554;52.006;5.926;2022-10-22T05:14:16;8.90;;;4.50;;
70908;SDS011;58554;52.006;5.926;2022-10-22T05:16:45;12.00;;;5.03;;
70908;SDS011;58554;52.006;5.926;2022-10-22T05:19:14;7.75;;;4.53;;
70908;SDS011;58554;52.006;5.926;2022-10-22T05:21:46;8.20;;;4.30;;
70908;SDS011;58554;52.006;5.926;2022-10-22T05:24:12;9.50;;;4.77;;
70908;SDS011;58554;52.006;5.926;2022-10-22T05:26:39;7.47;;;4.63;;
70908;SDS011;58554;52.006;5.926;2022-10-22T05:29:05;8.93;;;4.67;;
70908;SDS011;58554;52.006;5.926;2022-10-22T05:31:32;7.30;;;4.47;;
70908;SDS011;58554;52.006;5.926;2022-10-22T05:33:59;10.77;;;4.30;;
70908;SDS011;58554;52.006;5.926;2022-10-22T05:36:25;10.32;;;4.55;;
70908;SDS011;58554;52.006;5.926;2022-10-22T05:38:55;8.02;;;4.43;;
70908;SDS011;58554;52.006;5.926;2022-10-22T05:41:23;10.50;;;4.40;;
70908;SDS011;58554;52.006;5.926;2022-10-22T05:43:53;8.98;;;4.97;;
70908;SDS011;58554;52.006;5.926;2022-10-22T05:46:22;9.25;;;4.25;;
70908;SDS011;58554;52.006;5.926;2022-10-22T05:48:52;9.77;;;4.50;;
70908;SDS011;58554;52.006;5.926;2022-10-22T05:51:21;9.82;;;4.78;;
70908;SDS011;58554;52.006;5.926;2022-10-22T05:53:51;10.10;;;4.60;;
70908;SDS011;58554;52.006;5.926;2022-10-22T05:56:24;8.23;;;4.22;;
70908;SDS011;58554;52.006;5.926;2022-10-22T05:58:54;12.53;;;4.67;;
70908;SDS011;58554;52.006;5.926;2022-10-22T06:01:22;11.47;;;4.30;;
70908;SDS011;58554;52.006;5.926;2022-10-22T06:03:52;11.30;;;4.63;;
70908;SDS011;58554;52.006;5.926;2022-10-22T06:06:21;9.00;;;4.57;;
70908;SDS011;58554;52.006;5.926;2022-10-22T06:08:58;9.90;;;4.28;;
70908;SDS011;58554;52.006;5.926;2022-10-22T06:11:29;8.88;;;4.43;;
70908;SDS011;58554;52.006;5.926;2022-10-22T06:13:55;8.98;;;4.28;;
70908;SDS011;58554;52.006;5.926;2022-10-22T06:16:22;9.02;;;4.30;;
70908;SDS011;58554;52.006;5.926;2022-10-22T06:18:48;8.38;;;4.07;;
70908;SDS011;58554;52.006;5.926;2022-10-22T06:21:15;10.80;;;4.28;;
70908;SDS011;58554;52.006;5.926;2022-10-22T06:23:42;11.13;;;5.47;;
70908;SDS011;58554;52.006;5.926;2022-10-22T06:26:11;8.48;;;4.47;;
70908;SDS011;58554;52.006;5.926;2022-10-22T06:28:38;8.85;;;4.03;;
70908;SDS011;58554;52.006;5.926;2022-10-22T06:31:04;11.03;;;4.50;;
70908;SDS011;58554;52.006;5.926;2022-10-22T06:33:31;7.50;;;3.97;;
70908;SDS011;58554;52.006;5.926;2022-10-22T06:36:09;9.02;;;4.00;;
70908;SDS011;58554;52.006;5.926;2022-10-22T06:38:38;9.50;;;4.15;;
70908;SDS011;58554;52.006;5.926;2022-10-22T06:41:07;9.27;;;4.07;;
70908;SDS011;58554;52.006;5.926;2022-10-22T06:43:39;9.43;;;4.50;;
70908;SDS011;58554;52.006;5.926;2022-10-22T06:46:07;9.37;;;4.03;;
70908;SDS011;58554;52.006;5.926;2022-10-22T06:48:34;11.17;;;4.10;;
70908;SDS011;58554;52.006;5.926;2022-10-22T06:51:02;7.20;;;3.80;;
70908;SDS011;58554;52.006;5.926;2022-10-22T06:53:31;8.40;;;4.43;;
70908;SDS011;58554;52.006;5.926;2022-10-22T06:56:01;10.65;;;4.40;;
70908;SDS011;58554;52.006;5.926;2022-10-22T06:58:34;8.20;;;4.35;;
70908;SDS011;58554;52.006;5.926;2022-10-22T07:01:02;5.47;;;3.43;;
70908;SDS011;58554;52.006;5.926;2022-10-22T07:03:31;9.93;;;4.15;;
70908;SDS011;58554;52.006;5.926;2022-10-22T07:05:58;8.90;;;4.15;;
70908;SDS011;58554;52.006;5.926;2022-10-22T07:08:26;8.27;;;4.25;;
70908;SDS011;58554;52.006;5.926;2022-10-22T07:10:54;6.82;;;4.30;;
70908;SDS011;58554;52.006;5.926;2022-10-22T07:13:21;10.93;;;4.05;;
70908;SDS011;58554;52.006;5.926;2022-10-22T07:15:53;9.90;;;4.50;;
70908;SDS011;58554;52.006;5.926;2022-10-22T07:18:21;11.43;;;4.05;;
70908;SDS011;58554;52.006;5.926;2022-10-22T07:20:47;8.52;;;4.07;;
70908;SDS011;58554;52.006;5.926;2022-10-22T07:23:15;13.77;;;4.72;;
70908;SDS011;58554;52.006;5.926;2022-10-22T07:25:43;10.68;;;4.40;;
70908;SDS011;58554;52.006;5.926;2022-10-22T07:28:09;13.25;;;4.38;;
70908;SDS011;58554;52.006;5.926;2022-10-22T07:30:36;8.60;;;4.23;;
70908;SDS011;58554;52.006;5.926;2022-10-22T07:33:06;10.23;;;4.03;;
70908;SDS011;58554;52.006;5.926;2022-10-22T07:35:35;9.35;;;4.28;;
70908;SDS011;58554;52.006;5.926;2022-10-22T07:38:03;8.38;;;4.47;;
70908;SDS011;58554;52.006;5.926;2022-10-22T07:40:30;9.77;;;4.25;;
70908;SDS011;58554;52.006;5.926;2022-10-22T07:42:58;10.82;;;4.78;;
70908;SDS011;58554;52.006;5.926;2022-10-22T07:45:25;9.55;;;4.22;;
70908;SDS011;58554;52.006;5.926;2022-10-22T07:47:51;9.48;;;4.10;;
70908;SDS011;58554;52.006;5.926;2022-10-22T07:50:21;12.45;;;4.45;;
70908;SDS011;58554;52.006;5.926;2022-10-22T07:52:47;11.15;;;4.28;;
70908;SDS011;58554;52.006;5.926;2022-10-22T07:55:14;8.30;;;4.03;;
70908;SDS011;58554;52.006;5.926;2022-10-22T07:57:40;11.70;;;4.10;;
70908;SDS011;58554;52.006;5.926;2022-10-22T08:00:08;8.40;;;4.22;;
70908;SDS011;58554;52.006;5.926;2022-10-22T08:02:37;10.00;;;4.00;;
70908;SDS011;58554;52.006;5.926;2022-10-22T08:05:05;7.68;;;3.70;;
70908;SDS011;58554;52.006;5.926;2022-10-22T08:07:37;11.33;;;4.00;;
70908;SDS011;58554;52.006;5.926;2022-10-22T08:10:03;10.38;;;3.78;;
70908;SDS011;58554;52.006;5.926;2022-10-22T08:12:32;8.50;;;3.70;;
70908;SDS011;58554;52.006;5.926;2022-10-22T08:14:59;12.20;;;4.38;;
70908;SDS011;58554;52.006;5.926;2022-10-22T08:17:25;8.38;;;3.72;;
70908;SDS011;58554;52.006;5.926;2022-10-22T08:19:52;8.95;;;4.03;;
70908;SDS011;58554;52.006;5.926;2022-10-22T08:22:18;11.85;;;3.80;;
70908;SDS011;58554;52.006;5.926;2022-10-22T08:24:47;11.20;;;3.60;;
70908;SDS011;58554;52.006;5.926;2022-10-22T08:27:14;9.10;;;3.90;;
70908;SDS011;58554;52.006;5.926;2022-10-22T08:29:40;12.48;;;3.90;;
70908;SDS011;58554;52.006;5.926;2022-10-22T08:32:07;12.07;;;3.73;;
70908;SDS011;58554;52.006;5.926;2022-10-22T08:34:33;9.07;;;3.40;;
70908;SDS011;58554;52.006;5.926;2022-10-22T08:37:00;10.57;;;3.67;;
70908;SDS011;58554;52.006;5.926;2022-10-22T08:39:26;9.05;;;3.83;;
70908;SDS011;58554;52.006;5.926;2022-10-22T08:41:57;8.03;;;3.40;;
70908;SDS011;58554;52.006;5.926;2022-10-22T08:44:55;8.80;;;3.42;;
70908;SDS011;58554;52.006;5.926;2022-10-22T08:47:37;8.43;;;3.88;;
70908;SDS011;58554;52.006;5.926;2022-10-22T08:50:34;8.80;;;3.27;;
70908;SDS011;58554;52.006;5.926;2022-10-22T08:53:05;9.25;;;3.28;;
70908;SDS011;58554;52.006;5.926;2022-10-22T08:55:38;9.15;;;3.10;;
70908;SDS011;58554;52.006;5.926;2022-10-22T08:58:09;15.30;;;3.77;;
70908;SDS011;58554;52.006;5.926;2022-10-22T09:00:53;12.17;;;3.53;;
70908;SDS011;58554;52.006;5.926;2022-10-22T09:03:27;10.65;;;3.70;;
70908;SDS011;58554;52.006;5.926;2022-10-22T09:06:08;10.77;;;3.53;;
70908;SDS011;58554;52.006;5.926;2022-10-22T09:08:41;8.83;;;2.90;;
70908;SDS011;58554;52.006;5.926;2022-10-22T09:11:25;8.13;;;3.10;;
70908;SDS011;58554;52.006;5.926;2022-10-22T09:13:59;7.78;;;3.60;;
70908;SDS011;58554;52.006;5.926;2022-10-22T09:16:31;11.82;;;3.03;;
70908;SDS011;58554;52.006;5.926;2022-10-22T09:19:13;8.93;;;3.03;;
70908;SDS011;58554;52.006;5.926;2022-10-22T09:21:52;7.75;;;2.67;;
70908;SDS011;58554;52.006;5.926;2022-10-22T09:24:34;7.67;;;3.27;;
70908;SDS011;58554;52.006;5.926;2022-10-22T09:27:08;6.97;;;2.70;;
70908;SDS011;58554;52.006;5.926;2022-10-22T09:29:42;7.60;;;2.80;;
70908;SDS011;58554;52.006;5.926;2022-10-22T09:32:10;7.38;;;2.80;;
70908;SDS011;58554;52.006;5.926;2022-10-22T09:34:37;11.70;;;2.70;;
70908;SDS011;58554;52.006;5.926;2022-10-22T09:37:05;11.02;;;3.17;;
70908;SDS011;58554;52.006;5.926;2022-10-22T09:39:36;7.78;;;3.05;;
70908;SDS011;58554;52.006;5.926;2022-10-22T09:42:08;8.60;;;3.10;;
70908;SDS011;58554;52.006;5.926;2022-10-22T09:44:43;8.10;;;2.67;;
70908;SDS011;58554;52.006;5.926;2022-10-22T09:47:28;11.50;;;3.10;;
70908;SDS011;58554;52.006;5.926;2022-10-22T09:50:17;8.63;;;2.83;;
70908;SDS011;58554;52.006;5.926;2022-10-22T09:52:53;7.22;;;2.85;;
70908;SDS011;58554;52.006;5.926;2022-10-22T09:55:29;8.63;;;3.07;;
70908;SDS011;58554;52.006;5.926;2022-10-22T09:57:57;9.23;;;3.07;;
70908;SDS011;58554;52.006;5.926;2022-10-22T10:00:28;8.45;;;2.60;;
70908;SDS011;58554;52.006;5.926;2022-10-22T10:02:56;6.93;;;2.80;;
70908;SDS011;58554;52.006;5.926;2022-10-22T10:05:25;8.30;;;2.80;;
70908;SDS011;58554;52.006;5.926;2022-10-22T10:07:55;9.47;;;2.70;;
70908;SDS011;58554;52.006;5.926;2022-10-22T10:10:27;7.93;;;3.20;;
70908;SDS011;58554;52.006;5.926;2022-10-22T10:13:13;8.20;;;2.70;;
70908;SDS011;58554;52.006;5.926;2022-10-22T10:16:00;9.25;;;3.22;;
70908;SDS011;58554;52.006;5.926;2022-10-22T10:18:44;8.88;;;3.35;;
70908;SDS011;58554;52.006;5.926;2022-10-22T10:21:33;7.20;;;2.87;;
70908;SDS011;58554;52.006;5.926;2022-10-22T10:24:15;8.03;;;3.00;;
70908;SDS011;58554;52.006;5.926;2022-10-22T10:26:54;7.13;;;3.35;;
70908;SDS011;58554;52.006;5.926;2022-10-22T10:29:34;8.63;;;2.75;;
70908;SDS011;58554;52.006;5.926;2022-10-22T10:32:21;7.45;;;3.72;;
70908;SDS011;58554;52.006;5.926;2022-10-22T10:35:20;8.90;;;3.63;;
70908;SDS011;58554;52.006;5.926;2022-10-22T10:37:56;9.23;;;3.77;;
70908;SDS011;58554;52.006;5.926;2022-10-22T10:40:45;8.73;;;3.60;;
70908;SDS011;58554;52.006;5.926;2022-10-22T10:43:17;9.25;;;3.92;;
70908;SDS011;58554;52.006;5.926;2022-10-22T10:45:58;8.30;;;3.85;;
70908;SDS011;58554;52.006;5.926;2022-10-22T10:48:39;9.73;;;3.70;;
70908;SDS011;58554;52.006;5.926;2022-10-22T10:51:19;10.00;;;3.60;;
70908;SDS011;58554;52.006;5.926;2022-10-22T10:54:15;9.40;;;3.75;;
70908;SDS011;58554;52.006;5.926;2022-10-22T10:56:59;9.52;;;3.75;;
70908;SDS011;58554;52.006;5.926;2022-10-22T10:59:40;11.40;;;4.10;;
70908;SDS011;58554;52.006;5.926;2022-10-22T11:02:30;9.07;;;4.00;;
70908;SDS011;58554;52.006;5.926;2022-10-22T11:05:34;10.17;;;4.07;;
70908;SDS011;58554;52.006;5.926;2022-10-22T11:08:07;9.05;;;3.70;;
70908;SDS011;58554;52.006;5.926;2022-10-22T11:10:42;10.52;;;4.28;;
70908;SDS011;58554;52.006;5.926;2022-10-22T11:13:17;10.52;;;4.32;;
70908;SDS011;58554;52.006;5.926;2022-10-22T11:15:58;8.35;;;4.13;;
70908;SDS011;58554;52.006;5.926;2022-10-22T11:18:36;12.87;;;3.93;;
70908;SDS011;58554;52.006;5.926;2022-10-22T11:21:14;10.85;;;4.15;;
70908;SDS011;58554;52.006;5.926;2022-10-22T11:23:50;7.30;;;4.20;;
70908;SDS011;58554;52.006;5.926;2022-10-22T11:26:28;9.70;;;4.03;;
70908;SDS011;58554;52.006;5.926;2022-10-22T11:29:06;9.50;;;4.20;;
70908;SDS011;58554;52.006;5.926;2022-10-22T11:31:42;9.27;;;4.15;;
70908;SDS011;58554;52.006;5.926;2022-10-22T11:34:12;9.63;;;4.10;;
70908;SDS011;58554;52.006;5.926;2022-10-22T11:36:48;10.40;;;3.42;;
70908;SDS011;58554;52.006;5.926;2022-10-22T11:39:30;9.15;;;3.65;;
70908;SDS011;58554;52.006;5.926;2022-10-22T11:42:08;8.23;;;4.47;;
70908;SDS011;58554;52.006;5.926;2022-10-22T11:44:57;7.65;;;3.30;;
70908;SDS011;58554;52.006;5.926;2022-10-22T11:47:27;7.95;;;3.55;;
70908;SDS011;58554;52.006;5.926;2022-10-22T11:50:00;9.70;;;3.17;;
70908;SDS011;58554;52.006;5.926;2022-10-22T11:52:52;10.17;;;2.93;;
70908;SDS011;58554;52.006;5.926;2022-10-22T11:55:31;13.73;;;3.37;;
70908;SDS011;58554;52.006;5.926;2022-10-22T11:58:24;8.00;;;3.40;;
70908;SDS011;58554;52.006;5.926;2022-10-22T12:01:11;7.82;;;3.30;;
70908;SDS011;58554;52.006;5.926;2022-10-22T12:03:49;8.63;;;3.30;;
70908;SDS011;58554;52.006;5.926;2022-10-22T12:06:19;8.27;;;3.60;;
70908;SDS011;58554;52.006;5.926;2022-10-22T12:08:55;7.95;;;3.10;;
70908;SDS011;58554;52.006;5.926;2022-10-22T12:11:27;13.57;;;3.40;;
70908;SDS011;58554;52.006;5.926;2022-10-22T12:14:13;8.77;;;3.20;;
70908;SDS011;58554;52.006;5.926;2022-10-22T12:16:47;9.35;;;3.35;;
70908;SDS011;58554;52.006;5.926;2022-10-22T12:19:23;8.40;;;3.00;;
70908;SDS011;58554;52.006;5.926;2022-10-22T12:21:56;8.30;;;2.65;;
70908;SDS011;58554;52.006;5.926;2022-10-22T12:24:34;8.85;;;3.03;;
70908;SDS011;58554;52.006;5.926;2022-10-22T12:27:13;9.27;;;3.03;;
70908;SDS011;58554;52.006;5.926;2022-10-22T12:29:44;11.63;;;4.03;;
70908;SDS011;58554;52.006;5.926;2022-10-22T12:32:11;11.10;;;3.35;;
70908;SDS011;58554;52.006;5.926;2022-10-22T12:34:44;7.50;;;2.70;;
70908;SDS011;58554;52.006;5.926;2022-10-22T12:37:14;10.18;;;3.10;;
70908;SDS011;58554;52.006;5.926;2022-10-22T12:39:44;6.77;;;3.00;;
70908;SDS011;58554;52.006;5.926;2022-10-22T12:42:12;10.73;;;2.70;;
70908;SDS011;58554;52.006;5.926;2022-10-22T12:44:42;8.88;;;2.35;;
70908;SDS011;58554;52.006;5.926;2022-10-22T12:47:10;6.82;;;2.80;;
70908;SDS011;58554;52.006;5.926;2022-10-22T12:49:41;7.95;;;3.00;;
70908;SDS011;58554;52.006;5.926;2022-10-22T12:52:13;7.55;;;2.38;;
70908;SDS011;58554;52.006;5.926;2022-10-22T12:54:48;8.97;;;2.60;;
70908;SDS011;58554;52.006;5.926;2022-10-22T12:57:17;8.05;;;2.42;;
70908;SDS011;58554;52.006;5.926;2022-10-22T12:59:46;9.73;;;2.80;;
70908;SDS011;58554;52.006;5.926;2022-10-22T13:02:17;6.55;;;2.55;;
70908;SDS011;58554;52.006;5.926;2022-10-22T13:05:07;9.32;;;2.65;;
70908;SDS011;58554;52.006;5.926;2022-10-22T13:07:46;9.90;;;2.80;;
70908;SDS011;58554;52.006;5.926;2022-10-22T13:10:21;10.55;;;3.35;;
70908;SDS011;58554;52.006;5.926;2022-10-22T13:12:53;7.13;;;2.40;;
70908;SDS011;58554;52.006;5.926;2022-10-22T13:15:32;8.77;;;2.20;;
70908;SDS011;58554;52.006;5.926;2022-10-22T13:18:04;9.35;;;2.47;;
70908;SDS011;58554;52.006;5.926;2022-10-22T13:20:54;8.63;;;2.28;;
70908;SDS011;58554;52.006;5.926;2022-10-22T13:23:24;9.80;;;2.78;;
70908;SDS011;58554;52.006;5.926;2022-10-22T13:25:59;10.05;;;2.65;;
70908;SDS011;58554;52.006;5.926;2022-10-22T13:28:36;8.20;;;2.47;;
70908;SDS011;58554;52.006;5.926;2022-10-22T13:31:07;7.00;;;2.43;;
70908;SDS011;58554;52.006;5.926;2022-10-22T13:33:40;11.77;;;2.80;;
70908;SDS011;58554;52.006;5.926;2022-10-22T13:36:11;7.60;;;2.90;;
70908;SDS011;58554;52.006;5.926;2022-10-22T13:38:41;11.07;;;2.80;;
70908;SDS011;58554;52.006;5.926;2022-10-22T13:41:20;8.55;;;2.83;;
70908;SDS011;58554;52.006;5.926;2022-10-22T13:43:49;9.13;;;2.80;;
70908;SDS011;58554;52.006;5.926;2022-10-22T13:46:17;8.65;;;2.80;;
70908;SDS011;58554;52.006;5.926;2022-10-22T13:48:44;11.13;;;2.97;;
70908;SDS011;58554;52.006;5.926;2022-10-22T13:51:14;9.20;;;2.75;;
70908;SDS011;58554;52.006;5.926;2022-10-22T13:53:45;14.40;;;3.63;;
70908;SDS011;58554;52.006;5.926;2022-10-22T13:56:14;8.17;;;3.07;;
70908;SDS011;58554;52.006;5.926;2022-10-22T13:58:46;9.82;;;3.30;;
70908;SDS011;58554;52.006;5.926;2022-10-22T14:01:15;12.55;;;4.35;;
70908;SDS011;58554;52.006;5.926;2022-10-22T14:03:48;7.60;;;3.38;;
70908;SDS011;58554;52.006;5.926;2022-10-22T14:06:18;11.70;;;3.50;;
70908;SDS011;58554;52.006;5.926;2022-10-22T14:08:48;8.43;;;3.27;;
70908;SDS011;58554;52.006;5.926;2022-10-22T14:11:18;10.45;;;3.92;;
70908;SDS011;58554;52.006;5.926;2022-10-22T14:13:47;8.70;;;3.45;;
70908;SDS011;58554;52.006;5.926;2022-10-22T14:16:15;12.30;;;4.18;;
70908;SDS011;58554;52.006;5.926;2022-10-22T14:18:47;11.87;;;3.90;;
70908;SDS011;58554;52.006;5.926;2022-10-22T14:21:15;8.23;;;3.80;;
70908;SDS011;58554;52.006;5.926;2022-10-22T14:23:44;9.85;;;3.53;;
70908;SDS011;58554;52.006;5.926;2022-10-22T14:26:19;10.02;;;3.45;;
70908;SDS011;58554;52.006;5.926;2022-10-22T14:28:51;10.05;;;3.60;;
70908;SDS011;58554;52.006;5.926;2022-10-22T14:31:19;12.13;;;3.40;;
70908;SDS011;58554;52.006;5.926;2022-10-22T14:33:45;9.93;;;3.78;;
70908;SDS011;58554;52.006;5.926;2022-10-22T14:36:13;10.70;;;3.90;;
70908;SDS011;58554;52.006;5.926;2022-10-22T14:38:41;10.80;;;3.55;;
70908;SDS011;58554;52.006;5.926;2022-10-22T14:41:15;10.88;;;3.63;;
70908;SDS011;58554;52.006;5.926;2022-10-22T14:43:46;12.32;;;3.50;;
70908;SDS011;58554;52.006;5.926;2022-10-22T14:46:16;9.77;;;3.60;;
70908;SDS011;58554;52.006;5.926;2022-10-22T14:48:44;10.90;;;3.85;;
70908;SDS011;58554;52.006;5.926;2022-10-22T14:51:11;12.55;;;4.03;;
70908;SDS011;58554;52.006;5.926;2022-10-22T14:53:41;14.05;;;4.50;;
70908;SDS011;58554;52.006;5.926;2022-10-22T14:56:08;7.25;;;4.00;;
70908;SDS011;58554;52.006;5.926;2022-10-22T14:58:37;9.37;;;3.90;;
70908;SDS011;58554;52.006;5.926;2022-10-22T15:01:05;11.43;;;3.67;;
70908;SDS011;58554;52.006;5.926;2022-10-22T15:03:35;10.93;;;3.63;;
70908;SDS011;58554;52.006;5.926;2022-10-22T15:06:02;11.40;;;4.60;;
70908;SDS011;58554;52.006;5.926;2022-10-22T15:08:29;11.10;;;3.75;;
70908;SDS011;58554;52.006;5.926;2022-10-22T15:10:57;12.40;;;4.03;;
70908;SDS011;58554;52.006;5.926;2022-10-22T15:13:26;11.85;;;3.80;;
70908;SDS011;58554;52.006;5.926;2022-10-22T15:15:54;10.00;;;3.92;;